EST,Max TemperatureF,Mean TemperatureF,Min TemperatureF,Max Dew PointF,MeanDew PointF,Min DewpointF,Max Humidity, Mean Humidity, Min Humidity, Max Sea Level PressureIn, Mean Sea Level PressureIn, Min Sea Level PressureIn, Max VisibilityMiles, Mean VisibilityMiles, Min VisibilityMiles, Max Wind SpeedMPH, Mean Wind SpeedMPH, Max Gust SpeedMPH,PrecipitationIn, CloudCover, Events, WindDirDegrees
2011-11-1,52,40,28,39,32,28,100,74,48,30.42,30.39,30.35,10,10,9,14,2,20,0.00,4,,186
2011-11-2,55,40,25,38,33,23,100,75,50,30.41,30.32,30.19,10,10,9,13,2,17,0.00,1,Fog,188
2011-11-3,57,46,34,45,41,34,92,79,66,30.19,29.98,29.82,10,10,7,18,6,25,0.00,5,,204
2011-11-4,48,41,33,40,30,25,76,65,53,30.19,29.98,29.85,10,10,10,25,11,31,T,5,Rain,315
2011-11-5,47,36,25,25,24,21,85,61,37,30.44,30.36,30.20,10,10,10,16,6,21,0.00,1,,344
2011-11-6,57,39,20,35,25,16,96,58,20,30.43,30.34,30.25,10,10,10,9,2,13,0.00,1,,200
2011-11-7,60,41,22,38,29,19,92,60,27,30.25,30.15,30.07,10,10,10,12,2,14,0.00,2,Fog,189
2011-11-8,63,48,32,37,31,26,89,57,25,30.24,30.17,30.10,10,10,10,13,3,17,0.00,2,,265
2011-11-9,62,52,42,48,42,35,93,68,42,30.25,30.17,30.08,10,10,6,15,4,20,0.00,5,,160
2011-11-10,61,56,50,57,54,50,100,92,84,30.08,29.86,29.44,10,5,2,14,7,18,0.37,8,Rain,148
2011-11-11,57,47,36,56,39,22,93,76,59,29.64,29.40,29.30,10,8,2,25,10,33,0.50,7,Rain,296
2011-11-12,44,39,33,32,26,21,67,58,49,30.04,29.90,29.69,10,10,10,15,7,22,0.00,5,,219
2011-11-13,56,43,30,48,39,28,93,74,54,30.15,30.04,29.87,10,10,10,18,5,25,0.00,6,,180
2011-11-14,60,55,49,49,45,42,86,71,55,29.85,29.75,29.68,10,10,10,17,8,21,0.01,7,Rain,187
2011-11-15,60,47,33,53,46,32,93,70,46,29.94,29.69,29.53,10,10,7,16,8,21,T,6,,207
2011-11-16,59,45,30,50,42,29,96,74,51,29.97,29.83,29.66,10,8,2,14,4,17,0.34,5,Rain,178
2011-11-17,50,43,35,50,36,25,100,75,49,29.77,29.70,29.63,10,8,0,20,5,23,0.01,8,Fog-Rain-Snow,306
2011-11-18,42,35,28,28,21,15,82,60,37,30.30,30.08,29.76,10,10,10,18,6,28,T,3,Snow,274
2011-11-19,49,37,25,31,25,19,75,56,37,30.31,30.21,30.09,10,10,10,18,6,24,0.00,6,,190
2011-11-20,56,48,39,41,34,28,77,64,51,30.11,29.96,29.81,10,10,10,15,9,22,T,6,,223
2011-11-21,40,30,20,29,19,14,77,59,40,30.39,30.31,30.12,10,10,10,17,7,22,0.00,1,,328
2011-11-22,40,28,16,21,17,13,92,66,40,30.44,30.39,30.34,10,10,10,6,0,8,0.00,3,Fog,2
2011-11-23,32,28,23,27,23,16,92,73,53,30.31,30.00,29.82,10,4,0,25,11,31,0.59,8,Fog-Snow,31
2011-11-24,35,27,19,27,21,16,92,78,64,30.12,30.07,29.98,10,10,9,12,4,15,0.00,5,,300
2011-11-25,47,37,26,36,31,26,100,83,65,30.09,29.99,29.89,10,10,8,13,3,16,0.00,5,,197
2011-11-26,49,38,26,39,34,28,100,83,66,30.27,30.13,29.95,10,10,8,14,2,16,0.00,7,,348
2011-11-27,49,43,36,48,38,30,93,85,76,30.33,30.23,30.07,10,9,2,14,7,20,0.00,8,,124
2011-11-28,58,47,36,49,46,35,100,86,72,30.15,30.02,29.95,10,9,2,15,9,21,T,6,Rain,211
2011-11-29,55,45,34,51,43,34,100,87,74,30.18,30.09,29.89,10,10,10,12,2,15,T,7,Rain,152
2011-11-30,63,50,36,61,50,35,100,83,66,29.86,29.65,29.51,10,9,2,29,13,39,0.37,6,Rain,171